SJV2191 WAHS-WADD
Flight info
| Callsign | SJV2191 |
|---|---|
| Flight time | 0h 59m |
| Altitude | 37000 |
| Route | BA T3 MOVMO |
| Aircraft | A20N/M-SDE2E3FGHIRWXY/LB1 |
Departure
| Time | 2026-04-29 19:24 |
|---|---|
| Airport | Jenderal Ahmad Yani Airport (WAHS) |
Arrival
| Time | 2026-04-29 20:24 |
|---|---|
| Airport | Denpasar I Gusti Ngurah Rai International Airport (WADD) |
| Time | Latitude | Longitude | Altitude | Speed | Heading |
|---|---|---|---|---|---|
| 2026-04-29 18:59 | -6.96845 | 110.37611 | 21 ft | 0 kts | 41° |
| 2026-04-29 19:14 | -6.96856 | 110.37601 | 21 ft | 2 kts | 43° |
| 2026-04-29 19:14 | -6.96867 | 110.37591 | 21 ft | 2 kts | 42° |
| 2026-04-29 19:15 | -6.96878 | 110.37581 | 21 ft | 2 kts | 42° |
| 2026-04-29 19:15 | -6.96889 | 110.37571 | 21 ft | 2 kts | 42° |
| 2026-04-29 19:15 | -6.96901 | 110.37560 | 21 ft | 2 kts | 42° |
| 2026-04-29 19:15 | -6.96906 | 110.37555 | 21 ft | 0 kts | 42° |
| 2026-04-29 19:17 | -6.96887 | 110.37564 | 21 ft | 12 kts | 1° |
| 2026-04-29 19:17 | -6.96927 | 110.37546 | 21 ft | 14 kts | 180° |
| 2026-04-29 19:17 | -6.97022 | 110.37479 | 22 ft | 14 kts | 219° |
| 2026-04-29 19:18 | -6.97044 | 110.37461 | 22 ft | 0 kts | 219° |
| 2026-04-29 19:20 | -6.97046 | 110.37460 | 22 ft | 1 kts | 218° |
| 2026-04-29 19:20 | -6.97092 | 110.37425 | 23 ft | 10 kts | 201° |
| 2026-04-29 19:20 | -6.97169 | 110.37450 | 25 ft | 14 kts | 139° |
| 2026-04-29 19:21 | -6.97239 | 110.37528 | 25 ft | 15 kts | 130° |
| 2026-04-29 19:21 | -6.97308 | 110.37610 | 25 ft | 15 kts | 130° |
| 2026-04-29 19:21 | -6.97377 | 110.37692 | 26 ft | 16 kts | 130° |
| 2026-04-29 19:21 | -6.97494 | 110.37832 | 28 ft | 26 kts | 129° |
| 2026-04-29 19:22 | -6.97612 | 110.37972 | 29 ft | 25 kts | 131° |
| 2026-04-29 19:22 | -6.97724 | 110.38084 | 29 ft | 18 kts | 138° |
| 2026-04-29 19:22 | -6.97737 | 110.38109 | 28 ft | 1 kts | 18° |
| 2026-04-29 19:22 | -6.97715 | 110.38091 | 28 ft | 5 kts | 313° |
| 2026-04-29 19:23 | -6.97706 | 110.38081 | 28 ft | 0 kts | 311° |
| 2026-04-29 19:23 | -6.97705 | 110.38081 | 28 ft | 1 kts | 311° |
| 2026-04-29 19:23 | -6.97548 | 110.37896 | 29 ft | 73 kts | 309° |
| 2026-04-29 19:24 | -6.97047 | 110.37301 | 23 ft | 142 kts | 310° |
| 2026-04-29 19:24 | -6.96280 | 110.36405 | 344 ft | 168 kts | 311° |
| 2026-04-29 19:24 | -6.95453 | 110.35440 | 1035 ft | 173 kts | 311° |
| 2026-04-29 19:24 | -6.94576 | 110.34427 | 1726 ft | 183 kts | 317° |
| 2026-04-29 19:25 | -6.93409 | 110.33855 | 2242 ft | 197 kts | 0° |
| 2026-04-29 19:25 | -6.92035 | 110.34248 | 2835 ft | 211 kts | 26° |
| 2026-04-29 19:25 | -6.90651 | 110.34953 | 3344 ft | 230 kts | 28° |
| 2026-04-29 19:25 | -6.89148 | 110.35711 | 3735 ft | 248 kts | 27° |
| 2026-04-29 19:26 | -6.87511 | 110.36491 | 4175 ft | 264 kts | 26° |
| 2026-04-29 19:26 | -6.85799 | 110.37270 | 4841 ft | 270 kts | 25° |
| 2026-04-29 19:26 | -6.84015 | 110.38065 | 5610 ft | 272 kts | 25° |
| 2026-04-29 19:26 | -6.82038 | 110.38935 | 6405 ft | 276 kts | 25° |
| 2026-04-29 19:27 | -6.80047 | 110.39806 | 7177 ft | 279 kts | 25° |
| 2026-04-29 19:27 | -6.77996 | 110.40698 | 7946 ft | 283 kts | 25° |
| 2026-04-29 19:27 | -6.76137 | 110.41506 | 8613 ft | 285 kts | 25° |
| 2026-04-29 19:27 | -6.74282 | 110.42311 | 9238 ft | 288 kts | 25° |
| 2026-04-29 19:28 | -6.72418 | 110.43122 | 9841 ft | 290 kts | 25° |
| 2026-04-29 19:28 | -6.70527 | 110.43943 | 10374 ft | 296 kts | 25° |
| 2026-04-29 19:28 | -6.68587 | 110.44785 | 10639 ft | 310 kts | 25° |
| 2026-04-29 19:28 | -6.66573 | 110.45664 | 10936 ft | 321 kts | 27° |
| 2026-04-29 19:29 | -6.64739 | 110.46950 | 11381 ft | 324 kts | 50° |
| 2026-04-29 19:29 | -6.63580 | 110.48932 | 11957 ft | 323 kts | 73° |
| 2026-04-29 19:29 | -6.63275 | 110.51177 | 12490 ft | 324 kts | 90° |
| 2026-04-29 19:29 | -6.63304 | 110.53523 | 13005 ft | 327 kts | 90° |
| 2026-04-29 19:30 | -6.63331 | 110.55842 | 13486 ft | 330 kts | 90° |
| 2026-04-29 19:30 | -6.63346 | 110.58154 | 13962 ft | 332 kts | 90° |
| 2026-04-29 19:30 | -6.63353 | 110.60498 | 14423 ft | 335 kts | 89° |
| 2026-04-29 19:30 | -6.63354 | 110.62877 | 14897 ft | 336 kts | 89° |
| 2026-04-29 19:31 | -6.63360 | 110.65260 | 15362 ft | 338 kts | 91° |
| 2026-04-29 19:31 | -6.63667 | 110.67665 | 15797 ft | 342 kts | 102° |
| 2026-04-29 19:31 | -6.64421 | 110.69952 | 16241 ft | 345 kts | 112° |
| 2026-04-29 19:31 | -6.65490 | 110.72227 | 16694 ft | 347 kts | 114° |
| 2026-04-29 19:32 | -6.66597 | 110.74486 | 17107 ft | 349 kts | 114° |
| 2026-04-29 19:32 | -6.67672 | 110.76669 | 17497 ft | 352 kts | 114° |
| 2026-04-29 19:32 | -6.68780 | 110.78936 | 17893 ft | 354 kts | 114° |
| 2026-04-29 19:32 | -6.69877 | 110.81185 | 18282 ft | 356 kts | 114° |
| 2026-04-29 19:33 | -6.70982 | 110.83459 | 18693 ft | 357 kts | 114° |
| 2026-04-29 19:33 | -6.72084 | 110.85731 | 19076 ft | 359 kts | 114° |
| 2026-04-29 19:33 | -6.73192 | 110.88013 | 19445 ft | 361 kts | 114° |
| 2026-04-29 19:33 | -6.74311 | 110.90323 | 19808 ft | 362 kts | 115° |
| 2026-04-29 19:34 | -6.75425 | 110.92620 | 20165 ft | 364 kts | 115° |
| 2026-04-29 19:34 | -6.76549 | 110.94940 | 20511 ft | 366 kts | 115° |
| 2026-04-29 19:34 | -6.77671 | 110.97257 | 20852 ft | 367 kts | 115° |
| 2026-04-29 19:34 | -6.78804 | 110.99597 | 21194 ft | 368 kts | 115° |
| 2026-04-29 19:35 | -6.79927 | 111.01917 | 21508 ft | 370 kts | 115° |
| 2026-04-29 19:35 | -6.81046 | 111.04228 | 21816 ft | 372 kts | 115° |
| 2026-04-29 19:35 | -6.82177 | 111.06564 | 22114 ft | 373 kts | 115° |
| 2026-04-29 19:35 | -6.83364 | 111.09019 | 22416 ft | 375 kts | 115° |
| 2026-04-29 19:36 | -6.84513 | 111.11388 | 22707 ft | 377 kts | 115° |
| 2026-04-29 19:36 | -6.85679 | 111.13797 | 22983 ft | 379 kts | 115° |
| 2026-04-29 19:36 | -6.86841 | 111.16200 | 23260 ft | 381 kts | 115° |
| 2026-04-29 19:36 | -6.88043 | 111.18684 | 23541 ft | 383 kts | 115° |
| 2026-04-29 19:37 | -6.89189 | 111.21053 | 23805 ft | 384 kts | 115° |
| 2026-04-29 19:37 | -6.89684 | 111.22077 | 23923 ft | 385 kts | 115° |
| 2026-04-29 19:37 | -6.91162 | 111.25133 | 24254 ft | 387 kts | 115° |
| 2026-04-29 19:37 | -6.92361 | 111.27615 | 24500 ft | 390 kts | 115° |
| 2026-04-29 19:38 | -6.93560 | 111.30096 | 24753 ft | 392 kts | 115° |
| 2026-04-29 19:38 | -6.94783 | 111.32626 | 25016 ft | 393 kts | 115° |
| 2026-04-29 19:38 | -6.95983 | 111.35111 | 25270 ft | 395 kts | 115° |
| 2026-04-29 19:38 | -6.97217 | 111.37667 | 25502 ft | 397 kts | 115° |
| 2026-04-29 19:39 | -6.98438 | 111.40195 | 25739 ft | 399 kts | 115° |
| 2026-04-29 19:39 | -6.99621 | 111.42761 | 25997 ft | 400 kts | 112° |
| 2026-04-29 19:39 | -7.00722 | 111.45368 | 26237 ft | 402 kts | 112° |
| 2026-04-29 19:39 | -7.01820 | 111.47989 | 26470 ft | 404 kts | 112° |
| 2026-04-29 19:40 | -7.02926 | 111.50635 | 26700 ft | 406 kts | 112° |
| 2026-04-29 19:40 | -7.04026 | 111.53265 | 26924 ft | 408 kts | 112° |
| 2026-04-29 19:40 | -7.05153 | 111.55958 | 27159 ft | 409 kts | 112° |
| 2026-04-29 19:40 | -7.06278 | 111.58646 | 27384 ft | 411 kts | 112° |
| 2026-04-29 19:41 | -7.07404 | 111.61337 | 27590 ft | 413 kts | 112° |
| 2026-04-29 19:41 | -7.08523 | 111.64012 | 27794 ft | 415 kts | 112° |
| 2026-04-29 19:41 | -7.09680 | 111.66777 | 28016 ft | 417 kts | 111° |
| 2026-04-29 19:41 | -7.10827 | 111.69519 | 28235 ft | 419 kts | 111° |
| 2026-04-29 19:42 | -7.12008 | 111.72344 | 28440 ft | 421 kts | 111° |
| 2026-04-29 19:42 | -7.12786 | 111.74206 | 28569 ft | 422 kts | 111° |
| 2026-04-29 19:42 | -7.14322 | 111.77880 | 28850 ft | 425 kts | 111° |
| 2026-04-29 19:42 | -7.15496 | 111.80690 | 29083 ft | 426 kts | 111° |
| 2026-04-29 19:43 | -7.16670 | 111.83499 | 29326 ft | 427 kts | 111° |
| 2026-04-29 19:43 | -7.17832 | 111.86279 | 29560 ft | 428 kts | 111° |
| 2026-04-29 19:43 | -7.19004 | 111.89085 | 29783 ft | 429 kts | 111° |
| 2026-04-29 19:43 | -7.20188 | 111.91919 | 29990 ft | 431 kts | 111° |
| 2026-04-29 19:44 | -7.21361 | 111.94725 | 30186 ft | 432 kts | 111° |
| 2026-04-29 19:44 | -7.22570 | 111.97620 | 30380 ft | 434 kts | 111° |
| 2026-04-29 19:44 | -7.23761 | 112.00472 | 30578 ft | 436 kts | 111° |
| 2026-04-29 19:44 | -7.24948 | 112.03320 | 30770 ft | 438 kts | 111° |
| 2026-04-29 19:45 | -7.26148 | 112.06196 | 30969 ft | 439 kts | 111° |
| 2026-04-29 19:45 | -7.27348 | 112.09072 | 31164 ft | 440 kts | 111° |
| 2026-04-29 19:45 | -7.28555 | 112.11967 | 31374 ft | 442 kts | 111° |
| 2026-04-29 19:45 | -7.29749 | 112.14831 | 31569 ft | 443 kts | 111° |
| 2026-04-29 19:46 | -7.30939 | 112.17681 | 31826 ft | 442 kts | 111° |
| 2026-04-29 19:46 | -7.32275 | 112.20887 | 32146 ft | 441 kts | 111° |
| 2026-04-29 19:46 | -7.33604 | 112.24073 | 32444 ft | 440 kts | 111° |
| 2026-04-29 19:46 | -7.34831 | 112.27018 | 32690 ft | 440 kts | 111° |
| 2026-04-29 19:47 | -7.36036 | 112.29910 | 32956 ft | 440 kts | 111° |
| 2026-04-29 19:47 | -7.37243 | 112.32814 | 33232 ft | 440 kts | 111° |
| 2026-04-29 19:47 | -7.38484 | 112.35793 | 33534 ft | 439 kts | 111° |
| 2026-04-29 19:47 | -7.39687 | 112.38685 | 33826 ft | 438 kts | 111° |
| 2026-04-29 19:48 | -7.40871 | 112.41531 | 34099 ft | 438 kts | 111° |
| 2026-04-29 19:48 | -7.41734 | 112.43604 | 34294 ft | 437 kts | 111° |
| 2026-04-29 19:48 | -7.43399 | 112.47606 | 34661 ft | 436 kts | 111° |
| 2026-04-29 19:48 | -7.44635 | 112.50575 | 34924 ft | 436 kts | 111° |
| 2026-04-29 19:49 | -7.45817 | 112.53415 | 35170 ft | 435 kts | 111° |
| 2026-04-29 19:49 | -7.47006 | 112.56274 | 35374 ft | 435 kts | 111° |
| 2026-04-29 19:49 | -7.48215 | 112.59186 | 35530 ft | 436 kts | 111° |
| 2026-04-29 19:49 | -7.49470 | 112.62206 | 35685 ft | 437 kts | 111° |
| 2026-04-29 19:50 | -7.50662 | 112.65076 | 35828 ft | 438 kts | 111° |
| 2026-04-29 19:50 | -7.51847 | 112.67928 | 35984 ft | 439 kts | 111° |
| 2026-04-29 19:50 | -7.53041 | 112.70802 | 36137 ft | 440 kts | 111° |
| 2026-04-29 19:50 | -7.54224 | 112.73653 | 36271 ft | 441 kts | 111° |
| 2026-04-29 19:51 | -7.55444 | 112.76592 | 36404 ft | 441 kts | 111° |
| 2026-04-29 19:51 | -7.56650 | 112.79497 | 36539 ft | 442 kts | 111° |
| 2026-04-29 19:51 | -7.57851 | 112.82391 | 36671 ft | 442 kts | 111° |
| 2026-04-29 19:51 | -7.59050 | 112.85278 | 36796 ft | 443 kts | 110° |
| 2026-04-29 19:52 | -7.60260 | 112.88197 | 36919 ft | 444 kts | 111° |
| 2026-04-29 19:52 | -7.62671 | 112.94010 | 36928 ft | 444 kts | 111° |
| 2026-04-29 19:53 | -7.65081 | 112.99827 | 36936 ft | 445 kts | 111° |
| 2026-04-29 19:53 | -7.67514 | 113.05699 | 36938 ft | 446 kts | 111° |
| 2026-04-29 19:54 | -7.71169 | 113.14529 | 36450 ft | 443 kts | 110° |
| 2026-04-29 19:54 | -7.72368 | 113.17423 | 36148 ft | 440 kts | 111° |
| 2026-04-29 19:54 | -7.73554 | 113.20291 | 35725 ft | 438 kts | 111° |
| 2026-04-29 19:55 | -7.74738 | 113.23154 | 35174 ft | 437 kts | 111° |
| 2026-04-29 19:55 | -7.75911 | 113.25989 | 34541 ft | 438 kts | 111° |
| 2026-04-29 19:55 | -7.77073 | 113.28800 | 33888 ft | 439 kts | 111° |
| 2026-04-29 19:55 | -7.78238 | 113.31623 | 33222 ft | 439 kts | 111° |
| 2026-04-29 19:56 | -7.79413 | 113.34466 | 32547 ft | 439 kts | 111° |
| 2026-04-29 19:56 | -7.80592 | 113.37318 | 31913 ft | 440 kts | 111° |
| 2026-04-29 19:56 | -7.81754 | 113.40131 | 31275 ft | 440 kts | 111° |
| 2026-04-29 19:56 | -7.82931 | 113.42978 | 30847 ft | 436 kts | 111° |
| 2026-04-29 19:57 | -7.84121 | 113.45859 | 30412 ft | 432 kts | 111° |
| 2026-04-29 19:57 | -7.84900 | 113.47744 | 30117 ft | 430 kts | 111° |
| 2026-04-29 19:57 | -7.86498 | 113.51610 | 29507 ft | 426 kts | 111° |
| 2026-04-29 19:57 | -7.87688 | 113.54491 | 29049 ft | 422 kts | 111° |
| 2026-04-29 19:58 | -7.88842 | 113.57290 | 28594 ft | 419 kts | 111° |
| 2026-04-29 19:58 | -7.89970 | 113.60023 | 28150 ft | 415 kts | 111° |
| 2026-04-29 19:58 | -7.91085 | 113.62729 | 27697 ft | 412 kts | 111° |
| 2026-04-29 19:58 | -7.92199 | 113.65434 | 27239 ft | 409 kts | 111° |
| 2026-04-29 19:59 | -7.93327 | 113.68169 | 26767 ft | 405 kts | 111° |
| 2026-04-29 19:59 | -7.94459 | 113.70917 | 26292 ft | 402 kts | 111° |
| 2026-04-29 19:59 | -7.95561 | 113.73592 | 25829 ft | 398 kts | 111° |
| 2026-04-29 19:59 | -7.96628 | 113.76183 | 25368 ft | 395 kts | 111° |
| 2026-04-29 20:00 | -7.97692 | 113.78766 | 24913 ft | 392 kts | 111° |
| 2026-04-29 20:00 | -7.98775 | 113.81393 | 24455 ft | 388 kts | 111° |
| 2026-04-29 20:00 | -7.99818 | 113.83928 | 24012 ft | 385 kts | 111° |
| 2026-04-29 20:00 | -8.00846 | 113.86423 | 23565 ft | 382 kts | 111° |
| 2026-04-29 20:01 | -8.01871 | 113.88925 | 23125 ft | 379 kts | 110° |
| 2026-04-29 20:01 | -8.02829 | 113.91537 | 22858 ft | 375 kts | 109° |
| 2026-04-29 20:01 | -8.03712 | 113.94065 | 22884 ft | 378 kts | 108° |
| 2026-04-29 20:01 | -8.04592 | 113.96591 | 22910 ft | 379 kts | 108° |
| 2026-04-29 20:02 | -8.05480 | 113.99139 | 22936 ft | 379 kts | 108° |
| 2026-04-29 20:02 | -8.06375 | 114.01706 | 22963 ft | 379 kts | 109° |
| 2026-04-29 20:02 | -8.07263 | 114.04253 | 22991 ft | 379 kts | 108° |
| 2026-04-29 20:02 | -8.07857 | 114.05959 | 23001 ft | 379 kts | 109° |
| 2026-04-29 20:03 | -8.09041 | 114.09358 | 23007 ft | 378 kts | 109° |
| 2026-04-29 20:03 | -8.09932 | 114.11911 | 23009 ft | 378 kts | 108° |
| 2026-04-29 20:03 | -8.10815 | 114.14444 | 23004 ft | 378 kts | 108° |
| 2026-04-29 20:03 | -8.11704 | 114.16995 | 22999 ft | 379 kts | 108° |
| 2026-04-29 20:04 | -8.12588 | 114.19537 | 22984 ft | 379 kts | 108° |
| 2026-04-29 20:04 | -8.13474 | 114.22079 | 22982 ft | 379 kts | 108° |
| 2026-04-29 20:04 | -8.14379 | 114.24681 | 22976 ft | 380 kts | 108° |
| 2026-04-29 20:04 | -8.15254 | 114.27196 | 22963 ft | 380 kts | 108° |
| 2026-04-29 20:05 | -8.16127 | 114.29704 | 22951 ft | 380 kts | 108° |
| 2026-04-29 20:05 | -8.16999 | 114.32212 | 22942 ft | 379 kts | 108° |
| 2026-04-29 20:05 | -8.17891 | 114.34774 | 22933 ft | 379 kts | 109° |
| 2026-04-29 20:05 | -8.18768 | 114.37296 | 22928 ft | 379 kts | 108° |
| 2026-04-29 20:06 | -8.19654 | 114.39843 | 22920 ft | 378 kts | 108° |
| 2026-04-29 20:06 | -8.20536 | 114.42381 | 22915 ft | 378 kts | 108° |
| 2026-04-29 20:06 | -8.21421 | 114.44930 | 22911 ft | 378 kts | 108° |
| 2026-04-29 20:06 | -8.22309 | 114.47485 | 22909 ft | 379 kts | 108° |
| 2026-04-29 20:07 | -8.23191 | 114.50024 | 22904 ft | 378 kts | 108° |
| 2026-04-29 20:07 | -8.24223 | 114.52488 | 22899 ft | 380 kts | 118° |
| 2026-04-29 20:07 | -8.25708 | 114.54733 | 22907 ft | 381 kts | 128° |
| 2026-04-29 20:07 | -8.27591 | 114.56706 | 22913 ft | 382 kts | 135° |
| 2026-04-29 20:08 | -8.29580 | 114.58549 | 22853 ft | 383 kts | 136° |
| 2026-04-29 20:08 | -8.30957 | 114.59809 | 22505 ft | 384 kts | 136° |
| 2026-04-29 20:08 | -8.33675 | 114.62299 | 21855 ft | 382 kts | 136° |
| 2026-04-29 20:08 | -8.35631 | 114.64100 | 21405 ft | 379 kts | 136° |
| 2026-04-29 20:09 | -8.37629 | 114.65947 | 20932 ft | 378 kts | 135° |
| 2026-04-29 20:09 | -8.39585 | 114.67758 | 20459 ft | 377 kts | 135° |
| 2026-04-29 20:09 | -8.41626 | 114.69651 | 19956 ft | 376 kts | 135° |
| 2026-04-29 20:09 | -8.43607 | 114.71487 | 19463 ft | 375 kts | 135° |
| 2026-04-29 20:10 | -8.45580 | 114.73318 | 18972 ft | 374 kts | 135° |
| 2026-04-29 20:10 | -8.47222 | 114.75338 | 18448 ft | 371 kts | 115° |
| 2026-04-29 20:10 | -8.47989 | 114.77793 | 17958 ft | 367 kts | 95° |
| 2026-04-29 20:10 | -8.48039 | 114.80367 | 17497 ft | 364 kts | 88° |
| 2026-04-29 20:11 | -8.48016 | 114.82941 | 17045 ft | 363 kts | 89° |
| 2026-04-29 20:11 | -8.48001 | 114.85523 | 16591 ft | 361 kts | 89° |
| 2026-04-29 20:11 | -8.47996 | 114.88094 | 16138 ft | 360 kts | 89° |
| 2026-04-29 20:11 | -8.47994 | 114.90641 | 15688 ft | 358 kts | 89° |
| 2026-04-29 20:12 | -8.47996 | 114.93175 | 15236 ft | 357 kts | 89° |
| 2026-04-29 20:12 | -8.47999 | 114.95705 | 14788 ft | 355 kts | 89° |
| 2026-04-29 20:12 | -8.48004 | 114.98261 | 14346 ft | 353 kts | 89° |
| 2026-04-29 20:12 | -8.48008 | 115.00797 | 13903 ft | 351 kts | 90° |
| 2026-04-29 20:13 | -8.48011 | 115.03263 | 13469 ft | 350 kts | 90° |
| 2026-04-29 20:13 | -8.48014 | 115.04918 | 13181 ft | 348 kts | 90° |
| 2026-04-29 20:13 | -8.48019 | 115.08171 | 12619 ft | 346 kts | 90° |
| 2026-04-29 20:13 | -8.48023 | 115.10607 | 12183 ft | 344 kts | 90° |
| 2026-04-29 20:14 | -8.48027 | 115.13062 | 11738 ft | 343 kts | 90° |
| 2026-04-29 20:14 | -8.48032 | 115.15492 | 11298 ft | 341 kts | 90° |
| 2026-04-29 20:14 | -8.48037 | 115.17909 | 10860 ft | 340 kts | 90° |
| 2026-04-29 20:14 | -8.48042 | 115.20336 | 10425 ft | 338 kts | 90° |
| 2026-04-29 20:15 | -8.48047 | 115.22729 | 10168 ft | 330 kts | 90° |
| 2026-04-29 20:15 | -8.48051 | 115.25098 | 10059 ft | 313 kts | 90° |
| 2026-04-29 20:15 | -8.48056 | 115.27329 | 9798 ft | 297 kts | 90° |
| 2026-04-29 20:15 | -8.48061 | 115.29396 | 9368 ft | 289 kts | 90° |
| 2026-04-29 20:16 | -8.48064 | 115.31461 | 9022 ft | 285 kts | 90° |
| 2026-04-29 20:16 | -8.48067 | 115.33500 | 8676 ft | 284 kts | 90° |
| 2026-04-29 20:16 | -8.48070 | 115.35526 | 8356 ft | 282 kts | 90° |
| 2026-04-29 20:16 | -8.48226 | 115.37555 | 8100 ft | 282 kts | 107° |
| 2026-04-29 20:17 | -8.49310 | 115.39208 | 8015 ft | 284 kts | 140° |
| 2026-04-29 20:17 | -8.51135 | 115.40032 | 7719 ft | 288 kts | 172° |
| 2026-04-29 20:17 | -8.53151 | 115.39953 | 7453 ft | 286 kts | 183° |
| 2026-04-29 20:17 | -8.55163 | 115.39852 | 7120 ft | 285 kts | 179° |
| 2026-04-29 20:18 | -8.57184 | 115.39844 | 6790 ft | 284 kts | 178° |
| 2026-04-29 20:18 | -8.59200 | 115.39855 | 6468 ft | 283 kts | 178° |
| 2026-04-29 20:18 | -8.61202 | 115.39860 | 6153 ft | 281 kts | 178° |
| 2026-04-29 20:18 | -8.63166 | 115.39859 | 5849 ft | 280 kts | 178° |
| 2026-04-29 20:19 | -8.65225 | 115.39857 | 5530 ft | 278 kts | 178° |
| 2026-04-29 20:19 | -8.67167 | 115.39856 | 5228 ft | 277 kts | 177° |
| 2026-04-29 20:19 | -8.69084 | 115.39856 | 4937 ft | 275 kts | 177° |
| 2026-04-29 20:19 | -8.71022 | 115.39855 | 4644 ft | 274 kts | 177° |
| 2026-04-29 20:20 | -8.72937 | 115.39568 | 4345 ft | 276 kts | 202° |
| 2026-04-29 20:20 | -8.74410 | 115.38311 | 4091 ft | 278 kts | 237° |
| 2026-04-29 20:20 | -8.74932 | 115.36449 | 3806 ft | 274 kts | 274° |
| 2026-04-29 20:20 | -8.74596 | 115.34546 | 3496 ft | 266 kts | 283° |
| 2026-04-29 20:21 | -8.74296 | 115.32710 | 3115 ft | 252 kts | 274° |
| 2026-04-29 20:21 | -8.74261 | 115.30872 | 2702 ft | 240 kts | 268° |
| 2026-04-29 20:21 | -8.74343 | 115.29181 | 2279 ft | 234 kts | 266° |
| 2026-04-29 20:21 | -8.74429 | 115.27540 | 2121 ft | 211 kts | 266° |
| 2026-04-29 20:22 | -8.74503 | 115.26118 | 1910 ft | 197 kts | 265° |
| 2026-04-29 20:22 | -8.74555 | 115.24770 | 1675 ft | 183 kts | 268° |
| 2026-04-29 20:22 | -8.74588 | 115.23507 | 1384 ft | 173 kts | 268° |
| 2026-04-29 20:22 | -8.74630 | 115.22319 | 1115 ft | 163 kts | 268° |
| 2026-04-29 20:23 | -8.74670 | 115.21180 | 778 ft | 159 kts | 268° |
| 2026-04-29 20:23 | -8.74704 | 115.20074 | 428 ft | 156 kts | 269° |
| 2026-04-29 20:23 | -8.74743 | 115.19015 | 216 ft | 146 kts | 266° |
| 2026-04-29 20:23 | -8.74787 | 115.17982 | 46 ft | 145 kts | 264° |
| 2026-04-29 20:24 | -8.74825 | 115.16975 | 18 ft | 117 kts | 266° |
| 2026-04-29 20:24 | -8.74833 | 115.16432 | 18 ft | 46 kts | 291° |
| 2026-04-29 20:24 | -8.74784 | 115.16327 | 19 ft | 0 kts | 296° |
| 2026-04-29 20:25 | -8.74781 | 115.16321 | 19 ft | 2 kts | 296° |
| 2026-04-29 20:25 | -8.74764 | 115.16302 | 19 ft | 5 kts | 320° |
| 2026-04-29 20:25 | -8.74723 | 115.16296 | 19 ft | 5 kts | 8° |
| 2026-04-29 20:25 | -8.74680 | 115.16309 | 20 ft | 7 kts | 24° |
| 2026-04-29 20:26 | -8.74641 | 115.16327 | 21 ft | 7 kts | 24° |
| 2026-04-29 20:26 | -8.74616 | 115.16337 | 22 ft | 11 kts | 15° |
| 2026-04-29 20:26 | -8.74573 | 115.16344 | 22 ft | 0 kts | 0° |
| 2026-04-29 20:26 | -8.74569 | 115.16343 | 22 ft | 0 kts | 345° |
| 2026-04-29 20:27 | -8.74551 | 115.16338 | 22 ft | 2 kts | 0° |
| 2026-04-29 20:27 | -8.74552 | 115.16338 | 22 ft | 1 kts | 1° |
| 2026-04-29 20:27 | -8.74558 | 115.16338 | 22 ft | 0 kts | 349° |
| 2026-04-29 20:27 | -8.74556 | 115.16338 | 22 ft | 0 kts | 356° |
| 2026-04-29 20:28 | -8.74554 | 115.16338 | 22 ft | 0 kts | 356° |